Time;durP1;ratioP1;P1;durP2;ratioP2;P2;SDS_P1;SDS_P2;PMS_P1;PMS_P2;Temp;Humidity;BMP_temperature;BMP_pressure;BME280_temperature;BME280_humidity;BME280_pressure;Samples;Min_cycle;Max_cycle;Signal;HPM_P1;HPM_P2
2021/01/30 00:02:22;;;;;;;6.80;2.67;;;;;;;-1.19;53.85;100192.31;5025399;28;20037;-70
2021/01/30 00:04:49;;;;;;;6.05;3.17;;;;;;;-1.33;53.73;100196.59;5024606;28;20072;-71
2021/01/30 00:07:15;;;;;;;7.93;3.28;;;;;;;-1.08;53.83;100200.81;5022123;28;20080;-71
2021/01/30 00:09:41;;;;;;;6.80;3.50;;;;;;;-1.45;54.65;100208.56;5031529;28;20669;-71
2021/01/30 00:12:06;;;;;;;9.80;4.07;;;;;;;-1.50;55.22;100197.47;5025260;28;20030;-71
2021/01/30 00:14:35;;;;;;;8.13;4.38;;;;;;;-1.66;55.92;100198.34;5024286;28;20033;-71
2021/01/30 00:17:02;;;;;;;11.05;3.53;;;;;;;-1.42;55.04;100197.44;5025086;28;20041;-71
2021/01/30 00:19:29;;;;;;;14.20;4.53;;;;;;;-0.87;53.96;100201.63;5029300;28;20411;-71
2021/01/30 00:22:04;;;;;;;8.93;4.25;;;;;;;-1.25;55.08;100207.69;5025555;28;20506;-71
2021/01/30 00:24:30;;;;;;;11.05;4.88;;;;;;;-0.98;54.44;100210.22;5021776;28;20088;-71
2021/01/30 00:26:59;;;;;;;11.85;4.32;;;;;;;-0.89;54.05;100218.75;5006163;28;20033;-71
2021/01/30 00:29:31;;;;;;;15.80;5.53;;;;;;;-1.11;55.07;100215.34;5026409;28;20068;-71
2021/01/30 00:31:57;;;;;;;10.95;5.93;;;;;;;-1.31;55.68;100220.50;5027433;28;20116;-71
2021/01/30 00:34:24;;;;;;;10.00;4.68;;;;;;;-1.11;55.03;100229.03;5008355;28;20779;-71
2021/01/30 00:36:54;;;;;;;9.63;4.38;;;;;;;-1.04;54.87;100238.47;5036903;28;20048;-71
2021/01/30 00:39:19;;;;;;;9.20;4.80;;;;;;;-0.91;54.19;100244.41;5024118;28;20072;-71
2021/01/30 00:41:46;;;;;;;13.60;4.65;;;;;;;-1.00;54.16;100247.84;5025708;28;20061;-71
2021/01/30 00:44:12;;;;;;;14.70;6.03;;;;;;;-1.05;54.40;100248.72;5022514;28;20034;-71
2021/01/30 00:46:38;;;;;;;10.95;5.97;;;;;;;-1.36;55.18;100245.31;5012235;28;20034;-70
2021/01/30 00:49:04;;;;;;;12.48;4.80;;;;;;;-1.55;55.32;100255.56;5027405;28;20165;-70
2021/01/30 00:51:30;;;;;;;15.63;6.03;;;;;;;-1.42;54.90;100264.09;5013678;28;20052;-71
2021/01/30 00:53:59;;;;;;;18.17;5.47;;;;;;;-1.50;54.71;100274.38;5020686;28;20037;-70
2021/01/30 00:56:25;;;;;;;10.95;4.85;;;;;;;-1.36;54.30;100278.63;5022591;28;20039;-71
2021/01/30 00:58:50;;;;;;;14.35;5.03;;;;;;;-1.18;53.92;100274.34;5027243;28;20132;-71
2021/01/30 01:01:16;;;;;;;11.00;4.55;;;;;;;-1.21;53.63;100273.50;5010780;28;20502;-70
2021/01/30 01:03:43;;;;;;;14.07;4.07;;;;;;;-1.17;53.48;100275.22;5027349;28;20033;-71
2021/01/30 01:06:09;;;;;;;8.15;4.38;;;;;;;-1.35;54.20;100275.22;5021327;28;20703;-71
2021/01/30 01:08:34;;;;;;;11.05;4.43;;;;;;;-1.58;54.57;100286.31;5022749;28;20426;-71
2021/01/30 01:11:00;;;;;;;10.40;4.65;;;;;;;-1.45;54.09;100277.78;5025764;28;20049;-70
2021/01/30 01:13:27;;;;;;;7.85;4.15;;;;;;;-1.69;54.85;100280.31;5029071;28;20037;-72
2021/01/30 01:15:53;;;;;;;10.20;4.25;;;;;;;-1.75;54.98;100282.91;5028141;28;20613;-71
2021/01/30 01:18:19;;;;;;;12.48;3.83;;;;;;;-1.50;53.74;100292.31;5025526;28;20040;-71
2021/01/30 01:20:45;;;;;;;6.47;3.33;;;;;;;-1.63;53.99;100290.59;5028653;28;20120;-71
2021/01/30 01:23:10;;;;;;;6.88;3.13;;;;;;;-1.59;53.81;100297.44;5022593;28;20057;-71
2021/01/30 01:25:36;;;;;;;9.57;2.80;;;;;;;-1.50;53.59;100294.88;5025311;28;20288;-71
2021/01/30 01:28:02;;;;;;;7.38;3.15;;;;;;;-1.21;52.66;100299.16;5027408;28;20146;-71
2021/01/30 01:30:27;;;;;;;6.82;2.45;;;;;;;-1.44;53.40;100291.44;5026306;28;20030;-71
2021/01/30 01:32:54;;;;;;;7.53;3.05;;;;;;;-1.32;52.57;100299.16;5042129;28;20033;-71
2021/01/30 01:35:22;;;;;;;8.65;2.50;;;;;;;-1.50;52.89;100300.00;5026522;28;20044;-71
2021/01/30 01:37:50;;;;;;;8.18;3.25;;;;;;;-1.48;52.55;100303.41;5029657;28;20029;-71
2021/01/30 01:40:16;;;;;;;8.88;2.35;;;;;;;-1.74;53.13;100300.81;5022589;28;20041;-71
2021/01/30 01:42:42;;;;;;;7.40;2.38;;;;;;;-1.44;51.63;100312.81;5028709;28;20577;-71
2021/01/30 01:45:08;;;;;;;6.85;2.95;;;;;;;-1.65;52.44;100318.75;5024389;28;20093;-72
2021/01/30 01:47:39;;;;;;;9.13;2.28;;;;;;;-1.68;52.08;100312.81;5011211;28;20033;-71
2021/01/30 01:50:13;;;;;;;4.30;1.90;;;;;;;-1.51;51.33;100315.38;5027180;28;20087;-70
2021/01/30 01:52:41;;;;;;;4.85;1.77;;;;;;;-1.64;51.55;100317.94;5014129;28;20077;-73
2021/01/30 01:55:14;;;;;;;3.50;1.90;;;;;;;-1.73;51.59;100317.91;5007055;28;20041;-70
2021/01/30 01:57:45;;;;;;;4.30;1.75;;;;;;;-2.05;52.48;100328.06;5026860;28;20037;-70
2021/01/30 02:00:11;;;;;;;4.97;1.67;;;;;;;-1.92;52.41;100319.56;5023227;28;20046;-71
2021/01/30 02:02:37;;;;;;;12.45;3.22;;;;;;;-1.87;51.69;100328.09;5021140;28;20040;-70
2021/01/30 02:05:10;;;;;;;5.95;1.77;;;;;;;-1.90;51.96;100327.28;5024472;28;20053;-71
2021/01/30 02:07:40;;;;;;;7.07;2.03;;;;;;;-2.05;52.03;100330.63;5019833;28;20037;-71
2021/01/30 02:10:10;;;;;;;5.35;2.20;;;;;;;-2.08;51.97;100330.63;5024414;28;20026;-71
2021/01/30 02:12:35;;;;;;;5.60;1.58;;;;;;;-2.02;51.37;100335.78;5020423;28;20026;-71
2021/01/30 02:15:01;;;;;;;7.32;2.00;;;;;;;-2.12;51.69;100346.81;5026373;28;20022;-71
2021/01/30 02:17:49;;;;;;;7.97;1.98;;;;;;;-2.06;51.63;100347.69;5029633;28;20188;-71
2021/01/30 02:20:36;;;;;;;4.60;2.10;;;;;;;-2.08;51.55;100343.44;5020957;28;20045;-71
2021/01/30 02:23:28;;;;;;;6.72;1.63;;;;;;;-2.17;51.63;100353.66;5028756;28;20044;-70
2021/01/30 02:26:09;;;;;;;4.30;2.00;;;;;;;-2.21;51.35;100357.88;5022284;28;20055;-71
2021/01/30 02:28:43;;;;;;;4.63;1.75;;;;;;;-2.18;51.51;100351.91;5021087;28;20061;-71
2021/01/30 02:31:29;;;;;;;4.40;2.05;;;;;;;-2.16;51.54;100365.59;5024936;28;20048;-69
2021/01/30 02:34:20;;;;;;;5.40;2.08;;;;;;;-2.10;51.76;100352.81;5027585;28;20391;-71
2021/01/30 02:36:53;;;;;;;3.50;1.45;;;;;;;-1.98;52.05;100362.25;5038931;28;20128;-71
2021/01/30 02:39:52;;;;;;;5.72;1.73;;;;;;;-1.82;52.07;100362.31;5022091;28;20021;-71
2021/01/30 02:42:23;;;;;;;3.70;1.50;;;;;;;-1.75;51.85;100363.19;5026963;28;20040;-70
2021/01/30 02:45:08;;;;;;;7.53;1.98;;;;;;;-1.72;51.56;100364.88;5028013;28;20541;-71
2021/01/30 02:47:40;;;;;;;5.80;2.55;;;;;;;-1.80;51.44;100360.59;5020940;28;20041;-71
2021/01/30 02:50:16;;;;;;;6.63;2.03;;;;;;;-1.91;51.17;100352.03;5021522;28;20108;-71
2021/01/30 02:52:44;;;;;;;6.47;1.85;;;;;;;-2.01;51.30;100350.28;5020370;28;20060;-72
2021/01/30 02:55:12;;;;;;;5.70;2.08;;;;;;;-2.13;51.11;100356.22;5023501;28;20037;-71
2021/01/30 02:57:40;;;;;;;5.63;1.58;;;;;;;-2.30;51.27;100355.28;5023349;28;20033;-71
2021/01/30 03:00:09;;;;;;;4.45;2.15;;;;;;;-2.43;51.33;100346.69;5020859;28;20038;-71
2021/01/30 03:02:35;;;;;;;4.80;1.90;;;;;;;-2.55;51.30;100356.88;4999730;28;20288;-71
2021/01/30 03:05:01;;;;;;;7.07;1.90;;;;;;;-2.65;51.36;100351.69;5008277;28;20530;-73
2021/01/30 03:07:40;;;;;;;3.60;1.65;;;;;;;-2.75;51.45;100359.31;5033936;28;20063;-71
2021/01/30 03:10:31;;;;;;;4.45;1.90;;;;;;;-2.86;51.58;100356.66;5020668;28;20088;-73
2021/01/30 03:13:33;;;;;;;5.80;1.98;;;;;;;-3.05;51.64;100365.88;5004985;28;20046;-71
2021/01/30 03:16:08;;;;;;;10.98;2.08;;;;;;;-3.13;51.74;100368.38;5012122;28;20053;-70
2021/01/30 03:18:44;;;;;;;5.20;2.13;;;;;;;-3.11;51.77;100376.94;5011808;28;20103;-71
2021/01/30 03:21:12;;;;;;;4.43;1.83;;;;;;;-3.13;51.57;100373.50;5019254;28;20498;-71
2021/01/30 03:23:38;;;;;;;6.68;2.42;;;;;;;-3.19;52.71;100381.09;5020407;28;20025;-71
2021/01/30 03:26:08;;;;;;;4.55;2.22;;;;;;;-3.15;52.44;100380.31;5007882;28;20128;-70
2021/01/30 03:28:33;;;;;;;3.88;1.58;;;;;;;-3.19;52.36;100380.25;5023926;28;20100;-71
2021/01/30 03:31:00;;;;;;;5.03;2.33;;;;;;;-3.20;52.43;100391.34;5028531;28;20041;-71
2021/01/30 03:33:26;;;;;;;12.40;1.98;;;;;;;-3.24;52.29;100394.72;5035157;28;20438;-71
2021/01/30 03:35:52;;;;;;;4.80;1.70;;;;;;;-3.32;52.09;100402.28;5023548;28;20037;-71
2021/01/30 03:38:17;;;;;;;7.43;1.92;;;;;;;-3.24;52.03;100399.81;5018283;28;20080;-71
2021/01/30 03:40:43;;;;;;;5.38;2.25;;;;;;;-3.33;51.91;100411.66;5024926;28;20053;-71
2021/01/30 03:43:10;;;;;;;6.38;2.28;;;;;;;-3.34;52.27;100409.97;5020570;28;20072;-71
2021/01/30 03:45:36;;;;;;;7.28;2.20;;;;;;;-3.21;52.55;100410.06;5019068;28;20025;-71
2021/01/30 03:48:02;;;;;;;5.25;2.33;;;;;;;-3.08;53.11;100422.13;5023493;28;20052;-71
2021/01/30 03:50:27;;;;;;;6.90;2.42;;;;;;;-2.92;53.00;100415.44;5024934;28;20044;-71
2021/01/30 03:52:53;;;;;;;6.07;2.40;;;;;;;-2.85;53.06;100424.84;5021773;28;20402;-72
2021/01/30 03:55:20;;;;;;;6.22;2.30;;;;;;;-2.81;52.86;100430.88;5023230;28;20041;-71
2021/01/30 03:57:46;;;;;;;4.43;2.13;;;;;;;-2.84;52.70;100426.59;5023433;28;20039;-71
2021/01/30 04:00:17;;;;;;;7.40;2.58;;;;;;;-2.93;52.33;100421.41;5033827;28;20820;-71
2021/01/30 04:02:42;;;;;;;4.95;1.85;;;;;;;-3.01;52.11;100421.31;5020369;28;20037;-71
2021/01/30 04:05:12;;;;;;;4.05;1.70;;;;;;;-3.10;51.83;100427.22;5000748;28;20045;-71
2021/01/30 04:07:39;;;;;;;7.38;2.47;;;;;;;-3.30;51.90;100426.16;5022950;28;20030;-71
2021/01/30 04:10:07;;;;;;;3.70;2.03;;;;;;;-3.49;52.95;100422.56;5023136;28;20057;-71
2021/01/30 04:12:32;;;;;;;7.10;2.70;;;;;;;-3.20;52.68;100412.66;5027261;28;20495;-71
2021/01/30 04:14:58;;;;;;;7.85;2.58;;;;;;;-3.20;52.76;100410.09;5025873;28;20030;-71
2021/01/30 04:17:24;;;;;;;7.40;2.40;;;;;;;-3.17;52.46;100412.66;5030240;28;20040;-72
2021/01/30 04:19:49;;;;;;;5.57;2.03;;;;;;;-3.24;52.26;100420.28;5026341;28;20116;-71
2021/01/30 04:22:15;;;;;;;11.48;2.67;;;;;;;-3.27;52.45;100421.09;5020786;28;20037;-71
2021/01/30 04:24:44;;;;;;;6.38;2.50;;;;;;;-3.28;52.11;100421.94;5020006;28;20064;-71
2021/01/30 04:27:14;;;;;;;4.65;2.17;;;;;;;-3.41;52.03;100422.66;5037576;28;20029;-71
2021/01/30 04:29:42;;;;;;;4.80;2.38;;;;;;;-3.52;51.90;100425.97;5021667;28;20487;-71
2021/01/30 04:32:08;;;;;;;10.18;2.03;;;;;;;-3.58;51.89;100435.25;5037223;28;20026;-71
2021/01/30 04:34:34;;;;;;;12.48;3.30;;;;;;;-3.61;51.92;100430.94;5018941;28;20043;-72
2021/01/30 04:36:59;;;;;;;10.77;2.83;;;;;;;-3.65;51.94;100423.22;5025552;28;20483;-71
2021/01/30 04:39:25;;;;;;;6.47;2.05;;;;;;;-3.68;52.18;100432.56;5021696;28;20109;-71
2021/01/30 04:41:59;;;;;;;5.35;2.33;;;;;;;-3.64;51.73;100435.19;5020988;28;20057;-71
2021/01/30 04:44:34;;;;;;;6.30;2.60;;;;;;;-3.78;52.26;100424.81;5024226;28;20033;-73
2021/01/30 04:47:15;;;;;;;7.40;2.10;;;;;;;-3.85;52.12;100423.88;5005684;28;20057;-73
2021/01/30 04:49:53;;;;;;;5.93;3.15;;;;;;;-3.86;52.05;100421.28;5030537;28;20172;-73
2021/01/30 04:52:42;;;;;;;4.70;2.38;;;;;;;-3.92;51.89;100422.94;5022572;28;20029;-71
2021/01/30 04:55:24;;;;;;;6.65;2.47;;;;;;;-3.93;51.96;100418.66;5026370;28;20116;-70
2021/01/30 04:58:09;;;;;;;10.25;2.70;;;;;;;-3.99;52.18;100417.72;5024107;28;20061;-72
2021/01/30 05:01:10;;;;;;;4.20;2.40;;;;;;;-4.05;52.10;100421.06;5025652;28;20041;-73
2021/01/30 05:03:54;;;;;;;8.43;3.00;;;;;;;-4.10;52.10;100431.22;5027824;28;20029;-70
2021/01/30 05:07:01;;;;;;;6.18;2.28;;;;;;;-4.19;51.95;100427.69;5028261;28;20034;-70
2021/01/30 05:09:30;;;;;;;6.57;2.70;;;;;;;-4.19;51.78;100436.19;5028818;28;20037;-71
2021/01/30 05:12:03;;;;;;;4.63;2.35;;;;;;;-4.25;51.98;100437.81;5031876;28;20061;-71
2021/01/30 05:14:34;;;;;;;7.55;2.38;;;;;;;-4.30;52.31;100445.38;5024075;28;20065;-71
2021/01/30 05:17:16;;;;;;;5.20;2.10;;;;;;;-4.25;51.90;100441.22;5044038;28;20412;-71
2021/01/30 05:19:48;;;;;;;4.72;2.33;;;;;;;-4.31;51.94;100446.22;5031478;28;20041;-71
2021/01/30 05:22:15;;;;;;;4.85;2.28;;;;;;;-4.31;51.73;100451.34;5009047;28;20069;-71
2021/01/30 05:24:44;;;;;;;3.45;2.10;;;;;;;-4.33;51.43;100448.75;5031747;28;20045;-71
2021/01/30 05:27:17;;;;;;;4.82;2.05;;;;;;;-4.38;51.30;100445.28;5028465;28;20021;-71
2021/01/30 05:30:00;;;;;;;5.60;2.00;;;;;;;-4.47;51.24;100460.47;5024454;28;20036;-71
2021/01/30 05:32:44;;;;;;;;;;;;;;;-4.53;51.33;100460.34;5028166;28;20491;-71
2021/01/30 05:35:24;;;;;;;5.22;2.50;;;;;;;-4.70;51.40;100455.00;5014098;28;19913;-71
2021/01/30 05:37:55;;;;;;;6.68;2.47;;;;;;;-4.66;51.59;100455.91;5026649;28;20033;-72
2021/01/30 05:40:44;;;;;;;7.22;2.20;;;;;;;-4.75;51.29;100470.22;5021085;28;20052;-71
2021/01/30 05:43:13;;;;;;;4.63;2.35;;;;;;;-4.86;51.44;100465.78;5011315;28;20025;-71
2021/01/30 05:45:55;;;;;;;7.07;3.00;;;;;;;-4.83;51.65;100471.78;5029602;28;20041;-71
2021/01/30 05:48:25;;;;;;;4.70;2.90;;;;;;;-4.81;51.49;100469.25;5025912;28;20038;-72
2021/01/30 05:51:16;;;;;;;5.85;2.78;;;;;;;-4.78;51.10;100470.16;5030419;28;20040;-72
2021/01/30 05:53:43;;;;;;;6.70;2.67;;;;;;;-4.85;50.93;100468.34;5032028;28;20045;-71
2021/01/30 05:56:09;;;;;;;8.18;1.95;;;;;;;-4.83;51.07;100465.84;5028590;28;20041;-71
2021/01/30 05:58:39;;;;;;;6.40;2.15;;;;;;;-4.83;50.95;100466.69;5027792;28;20041;-71
2021/01/30 06:01:29;;;;;;;9.40;2.85;;;;;;;-4.74;50.68;100466.84;5024769;28;20328;-71
2021/01/30 06:04:10;;;;;;;4.65;2.53;;;;;;;-4.79;51.64;100463.38;5020729;28;20132;-72
2021/01/30 06:06:49;;;;;;;5.57;2.00;;;;;;;-4.67;51.43;100472.06;5010639;28;20051;-70
2021/01/30 06:09:36;;;;;;;8.30;2.58;;;;;;;-4.66;51.22;100464.41;5013791;28;20032;-72
2021/01/30 06:12:17;;;;;;;5.63;2.65;;;;;;;-4.67;51.65;100464.41;5023731;28;20045;-72
2021/01/30 06:14:43;;;;;;;5.28;1.67;;;;;;;-4.61;51.54;100467.03;5026638;28;20049;-71
2021/01/30 06:17:15;;;;;;;6.05;2.13;;;;;;;-4.66;51.67;100468.66;5026516;28;20052;-71
2021/01/30 06:19:41;;;;;;;8.07;1.85;;;;;;;-4.51;51.43;100468.91;5023927;28;20435;-71
2021/01/30 06:22:19;;;;;;;6.35;1.92;;;;;;;-4.44;51.10;100465.59;5021442;28;20033;-71
2021/01/30 06:24:45;;;;;;;9.80;2.17;;;;;;;-4.67;51.35;100472.06;5031575;28;20698;-71
2021/01/30 06:27:38;;;;;;;6.88;2.65;;;;;;;-4.77;52.15;100482.09;5023827;28;20030;-71
2021/01/30 06:30:12;;;;;;;7.38;1.75;;;;;;;-4.77;51.68;100488.88;5024649;28;20391;-71
2021/01/30 06:32:49;;;;;;;4.15;1.95;;;;;;;-4.76;51.59;100483.81;5023231;28;20112;-71
2021/01/30 06:35:17;;;;;;;8.18;2.50;;;;;;;-4.61;51.35;100477.22;5022335;28;20117;-71
2021/01/30 06:38:01;;;;;;;5.18;2.00;;;;;;;-4.75;51.16;100495.72;5014246;28;20037;-71
2021/01/30 06:40:35;;;;;;;9.20;2.63;;;;;;;-4.71;51.87;100489.81;5023162;28;20040;-71
2021/01/30 06:43:21;;;;;;;5.57;1.95;;;;;;;-4.67;51.45;100497.56;5024942;28;20033;-71
2021/01/30 06:45:47;;;;;;;3.10;1.90;;;;;;;-4.71;51.22;100497.47;5030085;28;20092;-72
2021/01/30 06:48:36;;;;;;;5.22;1.92;;;;;;;-4.57;51.15;100499.41;5021686;28;20109;-71
2021/01/30 06:51:02;;;;;;;7.10;2.67;;;;;;;-4.76;50.69;100505.91;5026230;28;20056;-71
2021/01/30 06:53:32;;;;;;;5.93;2.13;;;;;;;-4.76;50.98;100514.41;5028845;28;20400;-71
2021/01/30 06:56:13;;;;;;;5.45;1.92;;;;;;;-4.78;50.98;100512.66;5024861;28;20044;-71
2021/01/30 06:58:42;;;;;;;5.32;2.15;;;;;;;-4.92;51.12;100500.53;5025231;28;20080;-71
2021/01/30 07:01:11;;;;;;;9.50;3.22;;;;;;;-4.93;51.93;100503.91;5023674;28;20033;-71
2021/01/30 07:04:02;;;;;;;8.00;3.15;;;;;;;-4.85;51.44;100509.16;5029779;28;20064;-71
2021/01/30 07:07:05;;;;;;;7.18;2.60;;;;;;;-4.85;51.71;100503.19;5027365;28;20056;-71
2021/01/30 07:10:08;;;;;;;4.80;2.10;;;;;;;-4.84;51.18;100505.75;5024269;28;20030;-72
2021/01/30 07:13:01;;;;;;;7.47;3.00;;;;;;;-4.90;50.73;100498.03;5003596;28;20048;-71
2021/01/30 07:15:27;;;;;;;;;;;;;;;-4.97;50.74;100498.72;5021963;28;20026;-71
2021/01/30 07:17:59;;;;;;;5.70;2.78;;;;;;;-5.23;50.36;100506.75;5026886;28;19913;-71
2021/01/30 07:21:10;;;;;;;5.07;2.00;;;;;;;-5.15;50.46;100507.78;5025080;28;20059;-72
2021/01/30 07:24:03;;;;;;;5.18;2.20;;;;;;;-5.25;50.38;100498.22;5019055;28;20492;-71
2021/01/30 07:26:49;;;;;;;4.97;2.85;;;;;;;-5.36;50.50;100505.66;5023036;28;20034;-71
2021/01/30 07:29:31;;;;;;;6.03;3.13;;;;;;;-5.42;50.46;100515.72;5037704;28;20029;-71
2021/01/30 07:32:07;;;;;;;10.45;3.03;;;;;;;-5.45;50.64;100509.72;5025116;28;20508;-72
2021/01/30 07:34:40;;;;;;;7.88;2.83;;;;;;;-5.43;50.48;100518.25;5024261;28;20037;-74
2021/01/30 07:37:17;;;;;;;6.55;2.45;;;;;;;-5.44;50.56;100519.06;5025299;28;20048;-72
2021/01/30 07:39:54;;;;;;;5.53;2.28;;;;;;;-5.39;50.42;100514.94;5041602;28;20038;-71
2021/01/30 07:42:40;;;;;;;9.75;3.25;;;;;;;-5.42;50.81;100523.34;5009316;28;20045;-71
2021/01/30 07:45:14;;;;;;;9.73;3.50;;;;;;;-5.23;50.43;100516.94;5030065;28;20141;-71
2021/01/30 07:47:59;;;;;;;10.30;3.85;;;;;;;-5.15;50.08;100522.19;5026468;28;20037;-71
2021/01/30 07:50:36;;;;;;;11.25;4.88;;;;;;;-5.05;50.27;100516.44;5035190;28;20032;-71
2021/01/30 07:53:07;;;;;;;13.38;5.10;;;;;;;-4.83;50.08;100520.22;5028063;28;20113;-73
2021/01/30 07:55:33;;;;;;;15.98;5.90;;;;;;;-4.79;49.30;100524.56;5023354;28;20431;-71
2021/01/30 07:58:05;;;;;;;20.08;6.93;;;;;;;-4.44;49.81;100524.28;5008284;28;20040;-71
2021/01/30 08:01:02;;;;;;;10.85;5.72;;;;;;;-4.16;49.87;100533.22;5028221;28;20077;-71
2021/01/30 08:04:05;;;;;;;13.13;6.85;;;;;;;-3.68;50.14;100526.22;5023288;28;20034;-72
2021/01/30 08:06:39;;;;;;;17.20;6.57;;;;;;;-2.80;48.64;100530.66;5026568;28;20042;-72
2021/01/30 08:09:40;;;;;;;14.00;6.78;;;;;;;-2.03;44.89;100526.97;5030201;28;20030;-73
2021/01/30 08:12:23;;;;;;;7.75;4.53;;;;;;;-1.62;45.61;100523.81;5025708;28;20034;-74
2021/01/30 08:15:02;;;;;;;9.82;4.30;;;;;;;-1.27;45.14;100522.22;5009401;28;20103;-71
2021/01/30 08:17:30;;;;;;;8.02;5.30;;;;;;;-1.16;44.36;100525.69;5041159;28;20034;-73
2021/01/30 08:19:59;;;;;;;10.18;5.32;;;;;;;-0.87;45.19;100528.34;5030484;28;20090;-71
2021/01/30 08:22:37;;;;;;;10.40;4.80;;;;;;;-0.63;41.47;100539.50;5029012;28;20173;-71
2021/01/30 08:25:12;;;;;;;9.10;4.65;;;;;;;-0.17;42.06;100532.66;5031860;28;20106;-71
2021/01/30 08:27:43;;;;;;;8.32;4.38;;;;;;;0.23;40.58;100530.03;5026504;28;20029;-71
2021/01/30 08:30:16;;;;;;;7.25;3.97;;;;;;;0.65;40.60;100535.84;5022477;28;20034;-71
2021/01/30 08:33:03;;;;;;;9.55;4.10;;;;;;;1.47;38.46;100527.69;5024709;28;20052;-71
2021/01/30 08:35:29;;;;;;;15.13;4.13;;;;;;;2.29;35.84;100527.78;5036230;28;20030;-71
2021/01/30 08:38:24;;;;;;;12.25;5.20;;;;;;;3.53;34.27;100523.50;5008281;28;20139;-71
2021/01/30 08:40:57;;;;;;;9.15;4.45;;;;;;;4.03;33.76;100526.13;5012157;28;20060;-71
2021/01/30 08:43:59;;;;;;;9.27;3.97;;;;;;;4.47;31.93;100513.19;5036685;28;20048;-71
2021/01/30 08:46:27;;;;;;;7.03;4.37;;;;;;;5.62;29.56;100516.66;5015673;28;20120;-71
2021/01/30 08:49:12;;;;;;;5.30;3.65;;;;;;;5.04;29.02;100526.66;5029210;28;20041;-71
2021/01/30 08:51:38;;;;;;;6.65;4.65;;;;;;;5.50;28.66;100519.53;5025692;28;20022;-70
2021/01/30 08:54:29;;;;;;;7.70;3.97;;;;;;;5.15;30.05;100518.66;5013931;28;20655;-70
2021/01/30 08:56:55;;;;;;;8.77;4.17;;;;;;;3.91;30.61;100515.97;5042523;28;20036;-71
2021/01/30 08:59:46;;;;;;;9.32;4.80;;;;;;;2.59;33.39;100521.38;5025766;28;20403;-71
2021/01/30 09:02:31;;;;;;;5.80;3.13;;;;;;;1.80;36.46;100529.13;5024360;28;20045;-70
2021/01/30 09:05:07;;;;;;;8.00;3.70;;;;;;;1.85;36.18;100517.03;5012308;28;20132;-71
2021/01/30 09:07:43;;;;;;;6.07;3.33;;;;;;;2.87;34.70;100515.88;5021807;28;20034;-72
2021/01/30 09:10:12;;;;;;;5.63;2.35;;;;;;;3.41;32.91;100525.47;5024081;28;20064;-72
2021/01/30 09:13:04;;;;;;;3.25;2.03;;;;;;;3.46;34.53;100526.22;5025873;28;20041;-71
2021/01/30 09:15:42;;;;;;;18.20;2.53;;;;;;;3.50;34.46;100522.72;5027759;28;20022;-71
2021/01/30 09:18:23;;;;;;;6.97;2.25;;;;;;;3.31;33.64;100519.56;5026034;28;20125;-71
2021/01/30 09:21:00;;;;;;;7.22;1.95;;;;;;;3.73;34.50;100524.91;5006732;28;20033;-71
2021/01/30 09:23:47;;;;;;;3.63;1.85;;;;;;;4.11;32.92;100521.63;5040588;28;20180;-73
2021/01/30 09:26:23;;;;;;;4.28;1.30;;;;;;;4.27;31.70;100527.38;5029482;28;20059;-72
2021/01/30 09:28:55;;;;;;;4.90;2.40;;;;;;;4.54;32.83;100532.88;5030613;28;20041;-72
2021/01/30 09:31:22;;;;;;;;;;;;;;;4.44;31.97;100534.81;5024497;28;20086;-71
2021/01/30 09:34:11;;;;;;;5.18;2.05;;;;;;;4.68;35.22;100541.25;5031626;28;20003;-71
2021/01/30 09:36:41;;;;;;;4.40;2.10;;;;;;;4.93;32.19;100539.00;5007476;28;20052;-74
2021/01/30 09:39:30;;;;;;;7.68;3.30;;;;;;;4.71;34.02;100533.41;5032014;28;20033;-74
2021/01/30 09:42:15;;;;;;;11.27;4.18;;;;;;;4.20;34.35;100541.31;5007514;28;20125;-73
2021/01/30 09:44:41;;;;;;;4.43;2.60;;;;;;;4.84;33.29;100528.81;5039624;28;20038;-71
2021/01/30 09:47:16;;;;;;;5.10;3.30;;;;;;;5.39;32.77;100529.31;5025215;28;20507;-72
2021/01/30 09:49:45;;;;;;;8.52;2.70;;;;;;;4.89;33.65;100533.94;5025968;28;20890;-74
2021/01/30 09:52:16;;;;;;;3.35;2.45;;;;;;;4.91;33.71;100539.94;5022716;28;20431;-74
2021/01/30 09:54:42;;;;;;;7.10;2.75;;;;;;;5.53;32.27;100542.81;5026460;28;20132;-72
2021/01/30 09:57:17;;;;;;;6.03;2.42;;;;;;;5.59;32.00;100542.66;5028716;28;20466;-72
2021/01/30 09:59:42;;;;;;;5.95;1.95;;;;;;;5.17;33.08;100547.97;5030376;28;20045;-72
2021/01/30 10:02:19;;;;;;;3.50;2.17;;;;;;;4.77;32.53;100543.63;5019243;28;20407;-72
2021/01/30 10:04:45;;;;;;;2.78;2.03;;;;;;;4.59;33.14;100541.44;5024683;28;20439;-72
2021/01/30 10:07:15;;;;;;;3.33;2.10;;;;;;;4.80;33.48;100540.97;5021413;28;20030;-72
2021/01/30 10:09:46;;;;;;;4.22;2.60;;;;;;;5.07;33.55;100543.88;5026943;28;20113;-72
2021/01/30 10:12:14;;;;;;;3.93;2.50;;;;;;;5.17;32.06;100545.38;5028704;28;20039;-72
2021/01/30 10:14:44;;;;;;;2.92;2.05;;;;;;;4.96;32.98;100540.66;5025195;28;20026;-73
2021/01/30 10:17:35;;;;;;;6.88;3.00;;;;;;;4.78;32.54;100542.72;5021380;28;20518;-72
2021/01/30 10:20:19;;;;;;;4.43;2.20;;;;;;;4.92;31.98;100537.31;5028904;28;20034;-72
2021/01/30 10:22:48;;;;;;;4.60;2.28;;;;;;;4.77;32.09;100532.44;5026691;28;20101;-73
2021/01/30 10:25:26;;;;;;;4.68;2.05;;;;;;;4.32;32.71;100528.16;5023573;28;20120;-72
2021/01/30 10:28:10;;;;;;;3.70;1.98;;;;;;;3.79;33.38;100535.16;5007384;28;21438;-72
2021/01/30 10:30:36;;;;;;;5.00;1.95;;;;;;;3.62;33.58;100532.00;5024713;28;20053;-72
2021/01/30 10:33:08;;;;;;;7.63;2.22;;;;;;;3.33;34.47;100533.31;5029406;28;20594;-72
2021/01/30 10:35:45;;;;;;;9.15;3.03;;;;;;;3.47;34.95;100533.97;5020933;28;20495;-72
2021/01/30 10:38:15;;;;;;;5.30;2.08;;;;;;;3.72;33.90;100530.97;5025336;28;20346;-72
2021/01/30 10:41:15;;;;;;;3.03;1.60;;;;;;;3.76;33.30;100536.06;5025672;28;20079;-72
2021/01/30 10:43:43;;;;;;;2.30;1.50;;;;;;;4.32;33.23;100529.88;5011017;28;20072;-72
2021/01/30 10:46:16;;;;;;;3.10;2.10;;;;;;;4.90;32.16;100527.84;5026451;28;20160;-73
2021/01/30 10:48:42;;;;;;;5.78;2.00;;;;;;;5.02;30.84;100538.78;5022228;28;20057;-72
2021/01/30 10:51:24;;;;;;;4.47;2.28;;;;;;;5.11;31.68;100532.56;5021919;28;20136;-72
2021/01/30 10:54:09;;;;;;;2.03;1.52;;;;;;;5.17;30.89;100531.59;5024697;28;20043;-71
2021/01/30 10:56:34;;;;;;;3.85;2.13;;;;;;;4.57;32.24;100530.25;5019749;28;20025;-72
2021/01/30 10:59:00;;;;;;;2.60;1.75;;;;;;;4.91;32.67;100521.78;5022182;28;20399;-73
2021/01/30 11:01:34;;;;;;;4.85;2.30;;;;;;;4.90;32.13;100523.53;5021592;28;20037;-71
2021/01/30 11:04:02;;;;;;;3.45;1.75;;;;;;;4.56;31.82;100520.75;5023917;28;20164;-71
2021/01/30 11:06:49;;;;;;;5.13;2.05;;;;;;;4.56;32.20;100519.03;5022161;28;20041;-72
2021/01/30 11:09:27;;;;;;;5.32;2.42;;;;;;;3.97;34.04;100518.47;5025282;28;20063;-72
2021/01/30 11:12:17;;;;;;;5.72;2.30;;;;;;;3.68;33.12;100517.25;5016888;28;20095;-72
2021/01/30 11:14:42;;;;;;;6.15;2.28;;;;;;;3.42;34.42;100530.56;5023393;28;20060;-72
2021/01/30 11:17:27;;;;;;;3.25;1.85;;;;;;;3.36;34.00;100528.13;5010565;28;20021;-73
2021/01/30 11:19:53;;;;;;;3.10;1.50;;;;;;;3.53;34.41;100531.25;5020423;28;20041;-72
2021/01/30 11:22:25;;;;;;;4.20;2.25;;;;;;;3.48;34.36;100529.66;5023223;28;20435;-72
2021/01/30 11:25:04;;;;;;;3.65;1.98;;;;;;;3.59;35.11;100528.59;5025221;28;20699;-72
2021/01/30 11:27:33;;;;;;;2.15;1.63;;;;;;;3.57;35.01;100537.25;5016031;28;20484;-72
2021/01/30 11:30:23;;;;;;;2.67;1.40;;;;;;;3.62;34.67;100532.00;5017657;28;20669;-73
2021/01/30 11:32:51;;;;;;;2.47;1.58;;;;;;;4.08;34.16;100536.38;5021047;28;20037;-73
2021/01/30 11:35:23;;;;;;;3.60;1.67;;;;;;;4.12;33.51;100532.81;5023858;28;20087;-73
2021/01/30 11:37:49;;;;;;;;;;;;;;;4.19;33.87;100524.09;5016668;28;20128;-74
2021/01/30 11:40:15;;;;;;;4.30;2.10;;;;;;;4.49;32.97;100525.22;5033592;28;20004;-72
2021/01/30 11:42:41;;;;;;;2.88;1.40;;;;;;;4.79;32.21;100515.97;5023990;28;20065;-72
2021/01/30 11:45:07;;;;;;;5.30;2.35;;;;;;;4.56;31.67;100513.00;5019928;28;20431;-74
2021/01/30 11:47:32;;;;;;;2.83;2.03;;;;;;;5.14;34.02;100506.56;5021241;28;20040;-72
2021/01/30 11:49:58;;;;;;;3.70;2.20;;;;;;;4.77;33.40;100512.56;5010126;28;20037;-72
2021/01/30 11:52:27;;;;;;;3.85;1.60;;;;;;;4.16;33.85;100512.09;5036918;28;20018;-72
2021/01/30 11:54:53;;;;;;;3.58;1.67;;;;;;;4.19;34.10;100511.16;5023333;28;20083;-74
2021/01/30 11:57:19;;;;;;;6.47;2.42;;;;;;;4.10;34.84;100513.94;5018670;28;20072;-72
2021/01/30 11:59:45;;;;;;;3.58;1.42;;;;;;;4.36;32.80;100516.88;5022982;28;20095;-71